Time;durP1;ratioP1;P1;durP2;ratioP2;P2;SDS_P1;SDS_P2;PMS_P1;PMS_P2;Temp;Humidity;BMP_temperature;BMP_pressure;BME280_temperature;BME280_humidity;BME280_pressure;Samples;Min_cycle;Max_cycle;Signal;HPM_P1;HPM_P2
2023/07/01 00:01:35;;;;;;;7.17;6.57;;;14.90;99.90;;;;;;5053761;28;20448;-59
2023/07/01 00:04:02;;;;;;;7.10;6.57;;;14.90;99.90;;;;;;5053743;28;20444;-60
2023/07/01 00:06:30;;;;;;;8.07;7.27;;;14.90;99.90;;;;;;5053065;28;20464;-58
2023/07/01 00:08:56;;;;;;;6.37;5.77;;;14.90;99.90;;;;;;5053086;28;20459;-59
2023/07/01 00:11:23;;;;;;;6.47;5.87;;;14.90;99.90;;;;;;5053077;28;20444;-59
2023/07/01 00:13:50;;;;;;;6.30;5.80;;;14.90;99.90;;;;;;5052766;28;20918;-60
2023/07/01 00:16:18;;;;;;;5.50;5.10;;;14.90;99.90;;;;;;5053045;28;20476;-58
2023/07/01 00:18:46;;;;;;;5.57;5.10;;;14.90;99.90;;;;;;5053159;28;20444;-59
2023/07/01 00:21:13;;;;;;;9.13;5.53;;;14.90;99.90;;;;;;5053456;28;20784;-60
2023/07/01 00:23:41;;;;;;;6.33;5.80;;;14.90;99.90;;;;;;5053023;28;20463;-61
2023/07/01 00:26:08;;;;;;;5.07;4.57;;;14.90;99.90;;;;;;5052757;28;20459;-60
2023/07/01 00:28:35;;;;;;;5.73;5.23;;;14.80;99.90;;;;;;5056607;28;20454;-59
2023/07/01 00:31:02;;;;;;;5.97;5.47;;;14.80;99.90;;;;;;5056802;28;20921;-59
2023/07/01 00:33:29;;;;;;;5.97;5.47;;;14.80;99.90;;;;;;5057234;28;20531;-58
2023/07/01 00:35:55;;;;;;;5.47;5.07;;;14.80;99.90;;;;;;5056877;28;20440;-59
2023/07/01 00:38:22;;;;;;;5.70;5.27;;;14.80;99.90;;;;;;5057076;28;20804;-60
2023/07/01 00:40:50;;;;;;;5.50;5.00;;;14.80;99.90;;;;;;5056611;28;20930;-60
2023/07/01 00:43:17;;;;;;;5.40;5.00;;;14.80;99.90;;;;;;5057028;28;20848;-59
2023/07/01 00:45:44;;;;;;;5.37;4.87;;;14.70;99.90;;;;;;5056629;28;20455;-58
2023/07/01 00:48:19;;;;;;;5.53;5.03;;;14.80;99.90;;;;;;5056864;28;20464;-60
2023/07/01 00:50:46;;;;;;;7.73;4.90;;;14.80;99.90;;;;;;5056606;28;20437;-59
2023/07/01 00:53:12;;;;;;;5.17;4.77;;;14.80;99.90;;;;;;5056678;28;20471;-59
2023/07/01 00:55:40;;;;;;;7.53;4.60;;;14.90;99.90;;;;;;5056641;28;20474;-58
2023/07/01 00:58:08;;;;;;;6.23;5.00;;;14.90;99.90;;;;;;5056375;28;21001;-59
2023/07/01 01:00:35;;;;;;;5.43;4.77;;;15.00;99.90;;;;;;5056635;28;20450;-57
2023/07/01 01:03:20;;;;;;;6.10;4.87;;;15.10;99.90;;;;;;5056396;28;20452;-58
2023/07/01 01:05:51;;;;;;;5.00;4.60;;;15.10;99.90;;;;;;5056421;28;20431;-59
2023/07/01 01:08:25;;;;;;;4.80;4.23;;;15.20;99.90;;;;;;5056409;28;20471;-58
2023/07/01 01:10:54;;;;;;;5.77;4.60;;;15.20;99.90;;;;;;5056934;28;20420;-59
2023/07/01 01:13:25;;;;;;;4.57;4.17;;;15.30;99.90;;;;;;5056829;28;20815;-59
2023/07/01 01:15:52;;;;;;;5.07;4.27;;;15.30;99.90;;;;;;5055970;28;20914;-58
2023/07/01 01:18:23;;;;;;;5.07;4.60;;;15.30;99.90;;;;;;5055646;28;20488;-58
2023/07/01 01:20:51;;;;;;;4.27;3.87;;;15.30;99.90;;;;;;5056160;28;20436;-58
2023/07/01 01:23:25;;;;;;;4.30;3.90;;;15.40;99.90;;;;;;5056177;28;20455;-59
2023/07/01 01:26:00;;;;;;;4.03;3.73;;;15.40;99.90;;;;;;5055983;28;20458;-61
2023/07/01 01:28:28;;;;;;;4.63;3.90;;;15.40;99.90;;;;;;5055727;28;20996;-60
2023/07/01 01:30:55;;;;;;;3.70;3.30;;;15.50;99.90;;;;;;5056151;28;20447;-59
2023/07/01 01:33:21;;;;;;;6.20;3.87;;;15.50;99.90;;;;;;5055575;28;20444;-59
2023/07/01 01:35:48;;;;;;;5.40;3.80;;;15.50;99.90;;;;;;5055827;28;20449;-59
2023/07/01 01:38:20;;;;;;;4.83;3.40;;;15.50;99.90;;;;;;5054991;28;20491;-59
2023/07/01 01:40:52;;;;;;;3.63;3.10;;;15.60;99.90;;;;;;5055786;28;20432;-59
2023/07/01 01:43:26;;;;;;;3.93;3.30;;;15.60;99.90;;;;;;5055693;28;20436;-58
2023/07/01 01:45:55;;;;;;;4.23;3.60;;;15.60;99.90;;;;;;5055767;28;20428;-58
2023/07/01 01:48:22;;;;;;;3.40;3.10;;;15.60;99.90;;;;;;5055323;28;20463;-59
2023/07/01 01:50:51;;;;;;;4.37;3.10;;;15.60;99.90;;;;;;5055476;28;20451;-59
2023/07/01 01:53:19;;;;;;;4.37;3.27;;;15.70;99.90;;;;;;5055733;28;20523;-60
2023/07/01 01:55:46;;;;;;;3.90;3.40;;;15.70;99.90;;;;;;5055409;28;20451;-60
2023/07/01 01:58:13;;;;;;;3.77;3.27;;;15.70;99.90;;;;;;5055953;28;20491;-58
2023/07/01 02:00:40;;;;;;;4.30;3.00;;;15.70;99.90;;;;;;5055640;28;20444;-59
2023/07/01 02:03:08;;;;;;;3.60;3.30;;;15.70;99.90;;;;;;5057235;28;20451;-59
2023/07/01 02:05:35;;;;;;;3.23;2.93;;;15.70;99.90;;;;;;5057347;28;20444;-58
2023/07/01 02:08:04;;;;;;;3.93;3.20;;;15.70;99.90;;;;;;5056470;28;20463;-58
2023/07/01 02:10:32;;;;;;;3.90;2.90;;;15.70;99.90;;;;;;5055446;28;20543;-59
2023/07/01 02:12:59;;;;;;;7.60;3.30;;;15.70;99.90;;;;;;5055214;28;20445;-59
2023/07/01 02:15:25;;;;;;;3.37;3.07;;;15.70;99.90;;;;;;5055404;28;20460;-59
2023/07/01 02:17:53;;;;;;;3.77;3.27;;;15.70;99.90;;;;;;5054522;28;20480;-60
2023/07/01 02:20:21;;;;;;;4.20;3.23;;;15.70;99.90;;;;;;5054755;28;20488;-59
2023/07/01 02:22:48;;;;;;;4.13;3.70;;;15.70;99.90;;;;;;5054995;28;20436;-58
2023/07/01 02:25:15;;;;;;;3.93;3.53;;;15.70;99.90;;;;;;5054937;28;20455;-58
2023/07/01 02:27:42;;;;;;;3.60;3.03;;;15.70;99.90;;;;;;5054449;28;20490;-59
2023/07/01 02:30:09;;;;;;;3.90;3.23;;;15.70;99.90;;;;;;5054419;28;20448;-59
2023/07/01 02:32:36;;;;;;;3.33;3.00;;;15.70;99.90;;;;;;5054426;28;20937;-59
2023/07/01 02:35:03;;;;;;;3.90;3.03;;;15.70;99.90;;;;;;5054405;28;20969;-60
2023/07/01 02:37:31;;;;;;;3.70;3.10;;;15.70;99.90;;;;;;5054473;28;20482;-60
2023/07/01 02:39:57;;;;;;;4.87;3.17;;;15.70;99.90;;;;;;5054559;28;20444;-61
2023/07/01 02:42:25;;;;;;;7.10;3.00;;;15.70;99.90;;;;;;5054539;28;20444;-60
2023/07/01 02:44:51;;;;;;;3.10;2.83;;;15.70;99.90;;;;;;5054883;28;20446;-60
2023/07/01 02:47:19;;;;;;;3.40;2.87;;;15.60;99.90;;;;;;5054058;28;20997;-60
2023/07/01 02:49:46;;;;;;;4.10;3.20;;;15.60;99.90;;;;;;5053967;28;20471;-60
2023/07/01 02:52:13;;;;;;;4.37;3.03;;;15.60;99.90;;;;;;5053660;28;20452;-58
2023/07/01 02:54:41;;;;;;;4.50;3.20;;;15.50;99.90;;;;;;5054255;28;20467;-59
2023/07/01 02:57:08;;;;;;;4.27;3.20;;;15.50;99.90;;;;;;5054188;28;20476;-58
2023/07/01 02:59:36;;;;;;;4.60;3.20;;;15.50;99.90;;;;;;5053920;28;21009;-58
2023/07/01 03:02:04;;;;;;;3.93;3.53;;;15.50;99.90;;;;;;5054269;28;20466;-58
2023/07/01 03:04:30;;;;;;;5.10;3.20;;;15.50;99.90;;;;;;5054182;28;20535;-59
2023/07/01 03:06:57;;;;;;;5.43;3.07;;;15.50;99.90;;;;;;5054101;28;20491;-59
2023/07/01 03:09:24;;;;;;;3.50;3.20;;;15.50;99.80;;;;;;5054163;28;20480;-58
2023/07/01 03:11:52;;;;;;;4.73;3.60;;;15.50;99.70;;;;;;5053950;28;20444;-59
2023/07/01 03:14:19;;;;;;;5.47;3.50;;;15.60;99.60;;;;;;5053654;28;21008;-59
2023/07/01 03:16:46;;;;;;;3.30;3.00;;;15.70;99.50;;;;;;5053969;28;20470;-58
2023/07/01 03:19:13;;;;;;;3.20;3.00;;;15.70;99.30;;;;;;5053908;28;20515;-58
2023/07/01 03:21:42;;;;;;;4.53;2.90;;;15.80;99.10;;;;;;5053504;28;20964;-59
2023/07/01 03:24:08;;;;;;;2.97;2.67;;;15.80;98.80;;;;;;5053688;28;20444;-59
2023/07/01 03:26:35;;;;;;;3.20;2.90;;;15.90;98.60;;;;;;5053592;28;20468;-59
2023/07/01 03:29:04;;;;;;;5.10;3.63;;;15.90;98.40;;;;;;5053509;28;20428;-58
2023/07/01 03:31:32;;;;;;;3.60;3.30;;;16.00;98.20;;;;;;5053726;28;20440;-60
2023/07/01 03:33:59;;;;;;;4.57;3.10;;;16.10;98.00;;;;;;5053623;28;20555;-60
2023/07/01 03:36:26;;;;;;;3.73;3.20;;;16.10;97.80;;;;;;5053595;28;20447;-60
2023/07/01 03:38:53;;;;;;;4.00;2.50;;;16.10;97.60;;;;;;5053483;28;20480;-60
2023/07/01 03:41:20;;;;;;;2.80;2.60;;;16.20;97.50;;;;;;5054086;28;20452;-59
2023/07/01 03:43:47;;;;;;;4.43;3.00;;;16.20;97.40;;;;;;5053420;28;20448;-60
2023/07/01 03:46:16;;;;;;;3.93;2.70;;;16.30;97.30;;;;;;5053324;28;20539;-59
2023/07/01 03:48:43;;;;;;;4.40;3.03;;;16.30;97.20;;;;;;5053016;28;20448;-59
2023/07/01 03:51:10;;;;;;;3.33;2.73;;;16.30;97.10;;;;;;5053262;28;20457;-59
2023/07/01 03:53:36;;;;;;;3.10;2.80;;;16.30;97.00;;;;;;5053233;28;20528;-59
2023/07/01 03:56:03;;;;;;;3.50;2.77;;;16.40;96.90;;;;;;5052742;28;20810;-58
2023/07/01 03:58:30;;;;;;;2.70;2.30;;;16.40;96.80;;;;;;5052819;28;20566;-59
2023/07/01 04:00:57;;;;;;;3.87;2.50;;;16.50;96.70;;;;;;5053155;28;20444;-58
2023/07/01 04:03:26;;;;;;;4.07;3.30;;;16.50;96.50;;;;;;5053301;28;20467;-58
2023/07/01 04:05:53;;;;;;;4.20;3.13;;;16.50;96.30;;;;;;5057004;28;20471;-59
2023/07/01 04:08:20;;;;;;;4.40;3.00;;;16.60;96.10;;;;;;5053300;28;20460;-58
2023/07/01 04:11:56;;;;;;;3.50;3.20;;;16.60;95.50;;;;;;5091210;28;20565;-59
2023/07/01 04:14:24;;;;;;;3.90;3.30;;;16.70;95.40;;;;;;5090732;28;20790;-60
2023/07/01 04:16:50;;;;;;;4.47;3.00;;;16.70;95.20;;;;;;5090654;28;20469;-60
2023/07/01 04:19:17;;;;;;;5.50;2.70;;;16.70;95.10;;;;;;5090264;28;20954;-59
2023/07/01 04:21:44;;;;;;;4.30;3.20;;;16.70;94.90;;;;;;5090347;28;20438;-59
2023/07/01 04:24:11;;;;;;;5.33;3.00;;;16.80;94.80;;;;;;5091025;28;20442;-59
2023/07/01 04:26:37;;;;;;;3.13;2.80;;;16.80;94.60;;;;;;5089990;28;20988;-60
2023/07/01 04:29:06;;;;;;;3.10;2.80;;;16.80;94.40;;;;;;5108724;22;20993;-65
2023/07/01 04:31:32;;;;;;;2.70;2.47;;;16.80;94.20;;;;;;5071657;28;20570;-65
2023/07/01 04:33:59;;;;;;;3.67;2.70;;;16.90;94.10;;;;;;5072384;28;20443;-65
2023/07/01 04:36:26;;;;;;;9.50;3.10;;;16.90;93.90;;;;;;5072020;28;20440;-64
2023/07/01 04:38:52;;;;;;;3.40;3.10;;;16.90;93.70;;;;;;5071904;28;20463;-65
2023/07/01 04:41:19;;;;;;;3.80;2.63;;;17.00;93.70;;;;;;5072276;28;20468;-65
2023/07/01 04:43:46;;;;;;;3.03;2.53;;;17.00;93.30;;;;;;5072130;28;20448;-65
2023/07/01 04:46:14;;;;;;;5.30;3.43;;;17.10;93.10;;;;;;5071943;28;20450;-65
2023/07/01 04:48:41;;;;;;;7.20;2.87;;;17.20;92.80;;;;;;5071928;28;20463;-65
2023/07/01 04:51:07;;;;;;;4.80;2.60;;;17.30;92.50;;;;;;5071794;28;20475;-65
2023/07/01 04:53:34;;;;;;;3.30;2.50;;;17.40;92.20;;;;;;5071357;28;20938;-65
2023/07/01 04:56:01;;;;;;;4.90;2.47;;;17.50;91.80;;;;;;5071311;28;20954;-65
2023/07/01 04:58:27;;;;;;;3.80;2.93;;;17.60;91.30;;;;;;5071411;28;20463;-62
2023/07/01 05:00:55;;;;;;;2.90;2.50;;;17.70;90.90;;;;;;5071293;28;20435;-64
2023/07/01 05:03:23;;;;;;;7.93;2.47;;;17.90;90.50;;;;;;5071958;28;20474;-65
2023/07/01 05:05:50;;;;;;;3.17;2.70;;;18.00;90.00;;;;;;5071706;28;20443;-63
2023/07/01 05:08:17;;;;;;;3.97;3.40;;;18.10;89.10;;;;;;5071025;28;20477;-65
2023/07/01 05:10:44;;;;;;;2.73;2.10;;;18.20;88.00;;;;;;5071432;28;20486;-65
2023/07/01 05:13:10;;;;;;;3.83;2.30;;;18.30;86.90;;;;;;5071660;28;20454;-64
2023/07/01 05:15:38;;;;;;;3.37;2.90;;;18.40;86.10;;;;;;5070854;28;20474;-65
2023/07/01 05:18:05;;;;;;;2.27;2.07;;;18.50;85.10;;;;;;5071471;28;20822;-65
2023/07/01 05:20:33;;;;;;;5.40;2.30;;;18.60;84.20;;;;;;5070721;28;20439;-64
2023/07/01 05:23:00;;;;;;;3.90;2.70;;;18.70;83.30;;;;;;5059595;28;20444;-67
2023/07/01 05:25:27;;;;;;;2.30;2.10;;;18.80;82.50;;;;;;5057318;28;20440;-65
2023/07/01 05:27:53;;;;;;;4.20;2.20;;;18.90;81.50;;;;;;5057335;28;20475;-65
2023/07/01 05:30:20;;;;;;;3.33;2.07;;;19.10;80.40;;;;;;5058031;28;20484;-65
2023/07/01 05:32:47;;;;;;;4.20;2.30;;;19.30;79.20;;;;;;5058751;28;20450;-65
2023/07/01 05:35:14;;;;;;;2.67;2.00;;;19.40;78.00;;;;;;5058018;28;20547;-66
2023/07/01 05:37:42;;;;;;;2.80;2.60;;;19.50;77.00;;;;;;5056635;28;20827;-65
2023/07/01 05:40:11;;;;;;;2.93;2.37;;;19.60;76.00;;;;;;5057549;28;20546;-65
2023/07/01 05:42:38;;;;;;;4.00;2.70;;;19.60;75.20;;;;;;5058247;28;20460;-65
2023/07/01 05:45:06;;;;;;;3.73;2.60;;;19.60;74.60;;;;;;5057655;28;20475;-65
2023/07/01 05:47:33;;;;;;;4.60;2.27;;;19.50;74.30;;;;;;5057867;28;20834;-65
2023/07/01 05:50:00;;;;;;;2.50;2.30;;;19.50;74.10;;;;;;5057893;28;20448;-65
2023/07/01 05:52:26;;;;;;;4.50;2.33;;;19.50;74.10;;;;;;5058004;28;20445;-64
2023/07/01 05:54:54;;;;;;;6.57;2.67;;;19.50;73.90;;;;;;5057955;28;20471;-64
2023/07/01 05:57:21;;;;;;;2.47;2.00;;;19.50;73.30;;;;;;5057206;28;20451;-64
2023/07/01 05:59:49;;;;;;;2.53;1.80;;;19.50;73.10;;;;;;5056820;28;20444;-64
2023/07/01 06:02:16;;;;;;;2.73;2.00;;;19.50;72.90;;;;;;5057377;28;20442;-64
2023/07/01 06:04:43;;;;;;;2.57;2.37;;;19.60;72.80;;;;;;5057017;28;20452;-64
2023/07/01 06:07:09;;;;;;;4.57;2.10;;;19.70;72.30;;;;;;5056678;28;20820;-66
2023/07/01 06:09:36;;;;;;;2.23;2.03;;;19.80;71.70;;;;;;5057485;28;20445;-64
2023/07/01 06:12:05;;;;;;;2.80;2.17;;;19.90;71.20;;;;;;5056070;28;20488;-64
2023/07/01 06:14:32;;;;;;;2.43;1.87;;;20.00;70.60;;;;;;5056393;28;20831;-64
2023/07/01 06:16:59;;;;;;;3.43;1.90;;;20.10;69.90;;;;;;5057243;28;20447;-64
2023/07/01 06:19:25;;;;;;;3.67;2.50;;;20.10;69.40;;;;;;5056118;28;20474;-64
2023/07/01 06:21:52;;;;;;;4.53;2.30;;;20.10;69.30;;;;;;5056221;28;20447;-64
2023/07/01 06:24:19;;;;;;;3.60;2.30;;;20.00;69.80;;;;;;5056518;28;20527;-64
2023/07/01 06:26:46;;;;;;;5.10;2.10;;;20.00;69.20;;;;;;5056287;28;20448;-64
2023/07/01 06:29:14;;;;;;;2.70;2.27;;;20.00;69.00;;;;;;5057079;28;20538;-64
2023/07/01 06:31:41;;;;;;;2.60;2.30;;;20.00;69.00;;;;;;5056411;28;20491;-64
2023/07/01 06:34:13;;;;;;;2.90;2.60;;;19.90;68.80;;;;;;5056338;28;20498;-64
2023/07/01 06:36:40;;;;;;;2.30;1.97;;;19.90;68.90;;;;;;5058283;28;20428;-63
2023/07/01 06:39:07;;;;;;;5.90;2.63;;;20.00;68.80;;;;;;5062529;28;20478;-63
2023/07/01 06:41:34;;;;;;;4.50;2.80;;;20.00;68.50;;;;;;5059884;28;20500;-64
2023/07/01 06:44:00;;;;;;;4.00;2.50;;;20.00;68.40;;;;;;5059741;28;20444;-63
2023/07/01 06:46:29;;;;;;;2.73;2.20;;;20.10;68.40;;;;;;5059310;28;20448;-63
2023/07/01 06:48:56;;;;;;;2.77;2.57;;;20.10;68.20;;;;;;5058363;28;20579;-63
2023/07/01 06:51:22;;;;;;;2.60;2.40;;;20.10;67.90;;;;;;5059731;28;20993;-64
2023/07/01 06:53:49;;;;;;;2.53;2.33;;;20.20;67.90;;;;;;5056723;28;20828;-63
2023/07/01 06:56:16;;;;;;;3.23;2.37;;;20.20;67.70;;;;;;5056513;28;20455;-64
2023/07/01 06:58:42;;;;;;;2.30;2.10;;;20.20;67.50;;;;;;5055573;28;20472;-63
2023/07/01 07:01:09;;;;;;;3.60;2.47;;;20.20;67.50;;;;;;5055532;28;20440;-64
2023/07/01 07:03:39;;;;;;;2.97;2.30;;;20.20;67.50;;;;;;5056048;28;20451;-63
2023/07/01 07:06:06;;;;;;;3.57;2.50;;;20.20;67.50;;;;;;5055685;28;20452;-64
2023/07/01 07:08:33;;;;;;;3.83;2.20;;;20.20;67.40;;;;;;5056659;28;20476;-63
2023/07/01 07:11:00;;;;;;;2.33;2.10;;;20.10;67.30;;;;;;5059634;28;20482;-62
2023/07/01 07:13:26;;;;;;;2.60;2.17;;;20.10;67.30;;;;;;5055471;28;20514;-65
2023/07/01 07:15:53;;;;;;;4.47;2.57;;;20.10;67.30;;;;;;5054926;28;20451;-64
2023/07/01 07:18:20;;;;;;;3.37;2.50;;;20.10;67.10;;;;;;5054469;28;20479;-64
2023/07/01 07:20:48;;;;;;;2.53;2.33;;;20.20;67.10;;;;;;5054625;28;20440;-62
2023/07/01 07:23:15;;;;;;;6.23;2.97;;;20.20;66.80;;;;;;5055003;28;20448;-64
2023/07/01 07:25:42;;;;;;;2.73;2.37;;;20.30;66.60;;;;;;5054980;28;20444;-64
2023/07/01 07:28:08;;;;;;;3.93;2.13;;;20.30;66.40;;;;;;5054855;28;20488;-64
2023/07/01 07:30:35;;;;;;;3.30;2.20;;;20.40;66.20;;;;;;5055276;28;20450;-64
2023/07/01 07:33:02;;;;;;;2.37;2.17;;;20.40;66.10;;;;;;5054215;28;20454;-64
2023/07/01 07:35:29;;;;;;;2.60;2.40;;;20.40;65.80;;;;;;5054638;28;21013;-64
2023/07/01 07:37:57;;;;;;;3.00;2.70;;;20.50;65.60;;;;;;5054853;28;20522;-64
2023/07/01 07:40:23;;;;;;;2.70;2.10;;;20.60;65.20;;;;;;5054464;28;20977;-65
2023/07/01 07:42:53;;;;;;;2.60;2.40;;;20.70;64.80;;;;;;5054768;28;20961;-63
2023/07/01 07:45:21;;;;;;;2.90;2.53;;;20.80;64.50;;;;;;5054209;28;20898;-63
2023/07/01 07:47:47;;;;;;;5.13;2.80;;;20.80;64.20;;;;;;5055050;28;20999;-63
2023/07/01 07:50:14;;;;;;;3.40;2.13;;;20.90;64.10;;;;;;5054378;28;20975;-63
2023/07/01 07:52:41;;;;;;;2.50;2.23;;;20.90;63.70;;;;;;5054509;28;20480;-63
2023/07/01 07:55:10;;;;;;;2.97;2.07;;;20.90;63.40;;;;;;5054711;28;20494;-62
2023/07/01 07:57:37;;;;;;;4.57;2.47;;;20.90;63.40;;;;;;5052860;28;20477;-62
2023/07/01 08:00:05;;;;;;;2.77;2.37;;;20.80;63.50;;;;;;5053145;28;20448;-62
2023/07/01 08:02:32;;;;;;;2.87;2.20;;;20.80;63.50;;;;;;5053294;28;20440;-62
2023/07/01 08:04:59;;;;;;;4.10;2.80;;;20.80;63.50;;;;;;5053802;28;20461;-62
2023/07/01 08:07:25;;;;;;;2.93;2.10;;;20.70;63.40;;;;;;5052905;28;20464;-61
2023/07/01 08:09:52;;;;;;;4.37;2.70;;;20.60;63.50;;;;;;5053302;28;20448;-61
2023/07/01 08:12:20;;;;;;;5.43;1.80;;;20.60;63.70;;;;;;5053028;28;20471;-63
2023/07/01 08:14:47;;;;;;;2.37;2.17;;;20.60;63.60;;;;;;5052833;28;20444;-62
2023/07/01 08:17:14;;;;;;;4.97;2.40;;;20.60;63.70;;;;;;5052926;28;20447;-63
2023/07/01 08:19:40;;;;;;;4.93;2.47;;;20.50;63.60;;;;;;5052968;28;20440;-63
2023/07/01 08:22:08;;;;;;;5.43;2.50;;;20.50;63.70;;;;;;5053518;28;20506;-63
2023/07/01 08:24:34;;;;;;;3.30;2.43;;;20.50;63.70;;;;;;5052295;28;20444;-62
2023/07/01 08:27:02;;;;;;;3.27;2.13;;;20.60;63.80;;;;;;5052687;28;20440;-63
2023/07/01 08:29:30;;;;;;;4.10;2.90;;;20.50;63.90;;;;;;5052616;28;20456;-62
2023/07/01 08:31:59;;;;;;;4.03;2.53;;;20.50;64.00;;;;;;5052901;28;21001;-63
2023/07/01 08:34:25;;;;;;;3.00;2.70;;;20.60;64.00;;;;;;5053493;28;20449;-64
2023/07/01 08:36:52;;;;;;;3.77;2.70;;;20.70;63.90;;;;;;5053631;28;20451;-63
2023/07/01 08:39:19;;;;;;;3.87;2.37;;;20.80;63.60;;;;;;5052972;28;20473;-63
2023/07/01 08:41:51;;;;;;;3.00;2.43;;;21.00;63.20;;;;;;5053079;28;20441;-63
2023/07/01 08:44:19;;;;;;;3.03;2.50;;;21.10;62.90;;;;;;5053027;28;20472;-63
2023/07/01 08:46:50;;;;;;;3.80;2.63;;;21.20;62.30;;;;;;5053069;28;20955;-64
2023/07/01 08:49:18;;;;;;;8.90;2.60;;;21.50;61.60;;;;;;5053114;28;20470;-63
2023/07/01 08:51:45;;;;;;;6.03;2.30;;;21.60;60.90;;;;;;5052701;28;20486;-64
2023/07/01 08:54:13;;;;;;;5.27;2.70;;;21.70;60.40;;;;;;5052876;28;20887;-62
2023/07/01 08:56:40;;;;;;;6.90;2.80;;;21.80;60.00;;;;;;5053326;28;20958;-63
2023/07/01 08:59:08;;;;;;;2.73;2.20;;;21.90;59.90;;;;;;5057386;28;20501;-63
2023/07/01 09:01:37;;;;;;;2.20;2.00;;;22.00;59.60;;;;;;5057773;28;20445;-64
2023/07/01 09:04:06;;;;;;;4.17;2.73;;;22.00;59.20;;;;;;5057971;28;20450;-64
2023/07/01 09:06:33;;;;;;;4.03;2.20;;;22.20;58.90;;;;;;5058064;28;20547;-64
2023/07/01 09:09:01;;;;;;;2.30;1.93;;;22.40;58.60;;;;;;5057812;28;20471;-64
2023/07/01 09:11:28;;;;;;;3.97;2.33;;;22.60;58.20;;;;;;5057868;28;20479;-64
2023/07/01 09:13:55;;;;;;;3.90;2.30;;;22.70;57.80;;;;;;5057195;28;20443;-63
2023/07/01 09:16:32;;;;;;;4.77;2.50;;;22.80;57.60;;;;;;5057077;28;20451;-62
2023/07/01 09:19:10;;;;;;;2.70;2.40;;;22.90;57.30;;;;;;5056836;28;20471;-60
2023/07/01 09:21:37;;;;;;;4.33;2.40;;;23.00;57.10;;;;;;5056320;28;20477;-63
2023/07/01 09:24:06;;;;;;;2.40;2.20;;;23.00;57.00;;;;;;5055908;28;20886;-63
2023/07/01 09:26:33;;;;;;;11.73;3.10;;;23.10;56.90;;;;;;5056414;28;20444;-64
2023/07/01 09:29:07;;;;;;;6.73;2.67;;;23.20;56.70;;;;;;5056151;28;20489;-63
2023/07/01 09:31:44;;;;;;;2.80;2.60;;;23.40;56.30;;;;;;5056358;28;20472;-63
2023/07/01 09:34:12;;;;;;;3.37;2.13;;;23.60;56.00;;;;;;5057633;28;20513;-63
2023/07/01 09:36:39;;;;;;;3.50;2.60;;;23.80;55.70;;;;;;5056423;28;20483;-63
2023/07/01 09:39:06;;;;;;;2.83;2.57;;;23.90;55.40;;;;;;5055956;28;20980;-62
2023/07/01 09:41:33;;;;;;;4.60;2.13;;;24.00;55.10;;;;;;5055962;28;20445;-61
2023/07/01 09:44:00;;;;;;;6.93;2.37;;;24.00;54.90;;;;;;5055602;28;20475;-64
2023/07/01 09:46:42;;;;;;;3.60;2.27;;;24.10;55.00;;;;;;5056100;28;20965;-63
2023/07/01 09:49:09;;;;;;;4.87;2.73;;;24.00;54.80;;;;;;5056232;28;20818;-64
2023/07/01 09:51:47;;;;;;;4.10;2.30;;;23.90;54.90;;;;;;5055959;28;20480;-63
2023/07/01 09:54:28;;;;;;;5.60;2.57;;;23.70;54.80;;;;;;5055590;28;20483;-62
2023/07/01 09:56:56;;;;;;;3.07;2.80;;;23.60;55.00;;;;;;5056661;28;20444;-63
2023/07/01 09:59:23;;;;;;;3.60;2.43;;;23.50;55.20;;;;;;5055417;28;20563;-63
2023/07/01 10:01:50;;;;;;;3.47;2.33;;;23.30;55.40;;;;;;5054995;28;20818;-62
2023/07/01 10:04:21;;;;;;;3.00;2.47;;;23.20;55.70;;;;;;5055643;28;20531;-62
2023/07/01 10:06:50;;;;;;;3.60;2.30;;;23.00;55.70;;;;;;5055474;28;20467;-63
2023/07/01 10:09:16;;;;;;;4.67;2.57;;;22.90;55.90;;;;;;5055558;28;20544;-63
2023/07/01 10:11:44;;;;;;;5.33;2.57;;;22.80;56.00;;;;;;5055657;28;20484;-64
2023/07/01 10:14:11;;;;;;;4.40;2.53;;;22.70;56.50;;;;;;5055906;28;20455;-64
2023/07/01 10:16:46;;;;;;;3.53;2.10;;;22.60;56.70;;;;;;5055567;28;20439;-64
2023/07/01 10:19:35;;;;;;;2.30;2.10;;;22.60;56.90;;;;;;5055847;28;20471;-64
2023/07/01 10:22:23;;;;;;;3.10;2.47;;;22.60;57.10;;;;;;5049501;28;20815;-62
2023/07/01 10:25:01;;;;;;;3.00;2.70;;;22.50;57.20;;;;;;5056151;28;20420;-64
2023/07/01 10:28:13;;;;;;;3.40;2.83;;;22.40;57.50;;;;;;5054955;28;20565;-64
2023/07/01 10:31:14;;;;;;;5.47;2.50;;;22.20;57.90;;;;;;5097076;22;20489;-59
2023/07/01 10:33:59;;;;;;;5.60;2.97;;;22.10;58.50;;;;;;5075810;28;20486;-61
2023/07/01 10:36:26;;;;;;;4.00;2.93;;;22.00;58.80;;;;;;5075938;28;20446;-59
2023/07/01 10:39:41;;;;;;;4.23;2.40;;;22.00;59.00;;;;;;5075114;28;20978;-59
2023/07/01 10:42:24;;;;;;;7.70;2.90;;;22.00;59.20;;;;;;5027452;28;20521;-60
2023/07/01 10:44:51;;;;;;;3.40;2.73;;;21.90;59.40;;;;;;5075437;28;20487;-64
2023/07/01 10:47:18;;;;;;;5.40;3.00;;;21.80;59.60;;;;;;5075804;28;20449;-60
2023/07/01 10:50:05;;;;;;;8.40;3.10;;;21.80;59.70;;;;;;5075214;28;20543;-60
2023/07/01 10:52:32;;;;;;;4.13;2.50;;;21.80;60.00;;;;;;5075466;28;20466;-62
2023/07/01 10:55:02;;;;;;;5.17;2.20;;;21.80;60.20;;;;;;5075454;28;20480;-61
2023/07/01 10:57:30;;;;;;;3.97;2.83;;;21.90;60.40;;;;;;5075581;28;20930;-60
2023/07/01 11:00:34;;;;;;;3.13;2.70;;;22.00;60.60;;;;;;5078139;28;20461;-61
2023/07/01 11:03:01;;;;;;;2.67;2.47;;;22.20;60.80;;;;;;5077139;28;20453;-59
2023/07/01 11:05:30;;;;;;;5.23;3.50;;;22.40;60.60;;;;;;5076333;28;20442;-60
2023/07/01 11:08:08;;;;;;;6.07;3.40;;;22.60;60.50;;;;;;5075811;28;20508;-61
2023/07/01 11:10:36;;;;;;;4.17;2.60;;;22.60;60.40;;;;;;5076038;28;20450;-61
2023/07/01 11:13:04;;;;;;;5.67;2.67;;;22.70;60.50;;;;;;5075901;28;20481;-60
2023/07/01 11:15:31;;;;;;;3.80;2.40;;;22.60;60.60;;;;;;5075683;28;20457;-59
2023/07/01 11:17:58;;;;;;;5.33;2.40;;;22.60;61.00;;;;;;5076064;28;20457;-58
2023/07/01 11:20:25;;;;;;;5.60;2.10;;;22.50;61.40;;;;;;5075138;28;20468;-60
2023/07/01 11:22:52;;;;;;;3.40;2.50;;;22.50;61.60;;;;;;5075719;28;20942;-59
2023/07/01 11:25:19;;;;;;;3.20;2.20;;;22.40;61.80;;;;;;5075947;28;20442;-59
2023/07/01 11:27:47;;;;;;;2.70;2.50;;;22.30;62.40;;;;;;5075195;28;20458;-60
2023/07/01 11:30:29;;;;;;;4.00;2.20;;;22.10;63.00;;;;;;5075322;28;20532;-60
2023/07/01 11:32:55;;;;;;;3.70;2.37;;;22.10;63.40;;;;;;5075255;28;20538;-59
2023/07/01 11:35:22;;;;;;;3.50;2.33;;;22.10;63.50;;;;;;5074772;28;20794;-63
2023/07/01 11:37:49;;;;;;;2.90;2.40;;;22.10;63.70;;;;;;5075240;28;20451;-60
2023/07/01 11:40:16;;;;;;;3.00;1.97;;;22.20;63.80;;;;;;5075126;28;20466;-63
2023/07/01 11:42:43;;;;;;;2.50;2.20;;;22.30;63.60;;;;;;5075758;28;20442;-59
2023/07/01 11:45:12;;;;;;;3.53;2.33;;;22.30;63.50;;;;;;5075105;28;20457;-60
2023/07/01 11:47:46;;;;;;;3.90;2.90;;;22.20;63.60;;;;;;5074530;28;20457;-60
2023/07/01 11:50:13;;;;;;;4.17;2.57;;;22.10;63.90;;;;;;5074882;28;20480;-65
2023/07/01 11:52:40;;;;;;;3.60;2.73;;;22.00;64.40;;;;;;5074559;28;20485;-60
2023/07/01 11:55:07;;;;;;;3.33;2.50;;;22.00;64.70;;;;;;5074667;28;20446;-58
2023/07/01 11:57:34;;;;;;;4.60;2.47;;;22.00;64.80;;;;;;5074857;28;20441;-59
2023/07/01 12:00:03;;;;;;;3.20;2.50;;;22.00;65.00;;;;;;5074960;28;20466;-59
2023/07/01 12:02:32;;;;;;;3.23;2.93;;;22.00;65.00;;;;;;5074232;28;20520;-59
2023/07/01 12:05:00;;;;;;;2.80;2.37;;;22.10;65.20;;;;;;5075140;28;20448;-58
2023/07/01 12:07:27;;;;;;;4.13;2.40;;;22.10;65.30;;;;;;5074474;28;20445;-59
2023/07/01 12:09:53;;;;;;;3.83;2.27;;;22.00;65.40;;;;;;5074057;28;20461;-58
2023/07/01 12:12:36;;;;;;;2.83;2.30;;;22.00;65.70;;;;;;5074965;28;20478;-59
2023/07/01 12:15:03;;;;;;;3.37;2.60;;;22.00;66.00;;;;;;5074625;28;20437;-58
2023/07/01 12:17:31;;;;;;;2.87;2.57;;;22.10;66.10;;;;;;5074544;28;20461;-60
2023/07/01 12:19:59;;;;;;;3.00;2.57;;;22.20;66.00;;;;;;5075078;28;20554;-59
2023/07/01 12:22:26;;;;;;;3.27;2.30;;;22.30;65.90;;;;;;5074852;28;20438;-61
2023/07/01 12:24:57;;;;;;;2.80;1.90;;;22.20;66.10;;;;;;5073955;28;20454;-60
2023/07/01 12:27:24;;;;;;;2.10;1.90;;;22.10;66.40;;;;;;5074327;28;20438;-59
2023/07/01 12:29:51;;;;;;;3.10;2.80;;;22.10;67.00;;;;;;5073437;28;20985;-62
2023/07/01 12:32:18;;;;;;;3.20;2.63;;;22.00;67.40;;;;;;5075533;28;20449;-60
2023/07/01 12:34:46;;;;;;;5.00;3.30;;;22.10;68.20;;;;;;5078289;28;20816;-59
2023/07/01 12:37:13;;;;;;;2.90;2.60;;;22.10;68.60;;;;;;5078888;28;20541;-61
2023/07/01 12:39:44;;;;;;;3.93;2.60;;;22.20;68.70;;;;;;5078628;28;20454;-60
2023/07/01 12:42:11;;;;;;;5.17;2.30;;;22.40;68.60;;;;;;5078951;28;20798;-60
2023/07/01 12:44:39;;;;;;;3.47;2.37;;;22.50;68.20;;;;;;5078252;28;20438;-59
2023/07/01 12:47:07;;;;;;;3.60;3.03;;;22.60;68.20;;;;;;5078849;28;20485;-61
2023/07/01 12:49:34;;;;;;;3.20;2.80;;;22.80;68.00;;;;;;5078504;28;20477;-60
2023/07/01 12:52:02;;;;;;;2.87;2.47;;;23.10;67.30;;;;;;5078551;28;20450;-61
2023/07/01 12:54:32;;;;;;;4.13;2.20;;;23.50;66.60;;;;;;5078853;28;20482;-59
2023/07/01 12:56:58;;;;;;;2.90;2.30;;;23.80;65.60;;;;;;5078719;28;20448;-61